createdAt,value
2018-12-30T00:00:23.759Z,13.40
2018-12-30T00:06:27.278Z,12.70
2018-12-30T00:12:30.981Z,12.03
2018-12-30T00:18:35.122Z,12.37
2018-12-30T00:24:38.752Z,12.17
2018-12-30T00:30:42.167Z,13.37
2018-12-30T00:36:45.559Z,15.13
2018-12-30T00:42:49.369Z,14.97
2018-12-30T00:48:52.784Z,14.30
2018-12-30T00:54:56.191Z,14.00
2018-12-30T01:01:00.004Z,14.90
2018-12-30T01:07:03.816Z,17.03
2018-12-30T01:13:07.231Z,15.50
2018-12-30T01:19:11.681Z,16.00
2018-12-30T01:25:15.096Z,14.50
2018-12-30T01:31:18.520Z,13.37
2018-12-30T01:37:22.100Z,12.33
2018-12-30T01:43:25.511Z,12.07
2018-12-30T01:49:28.925Z,10.33
2018-12-30T01:55:32.736Z,10.37
2018-12-30T02:01:36.151Z,10.47
2018-12-30T02:07:39.828Z,9.67
2018-12-30T02:13:43.416Z,10.23
2018-12-30T02:19:47.712Z,10.20
2018-12-30T02:25:51.115Z,8.53
2018-12-30T02:31:54.525Z,7.37
2018-12-30T02:37:57.908Z,6.80
2018-12-30T02:44:01.323Z,6.80
2018-12-30T02:50:05.659Z,7.33
2018-12-30T02:56:09.078Z,11.90
2018-12-30T03:02:12.691Z,11.33
2018-12-30T03:08:16.692Z,12.20
2018-12-30T03:14:20.101Z,11.87
2018-12-30T03:20:24.447Z,10.90
2018-12-30T03:26:27.873Z,11.50
2018-12-30T03:32:31.184Z,11.33
2018-12-30T03:38:34.564Z,11.03
2018-12-30T03:44:37.965Z,11.53
2018-12-30T03:50:41.301Z,12.23
2018-12-30T03:56:44.705Z,10.83
2018-12-30T04:02:48.038Z,10.73
2018-12-30T04:08:51.470Z,10.33
2018-12-30T04:14:54.804Z,9.80
2018-12-30T04:20:59.046Z,10.77
2018-12-30T04:27:02.385Z,10.57
2018-12-30T04:33:05.799Z,11.23
2018-12-30T04:39:09.100Z,12.63
2018-12-30T04:45:12.502Z,10.20
2018-12-30T04:51:15.836Z,10.67
2018-12-30T04:57:19.179Z,11.60
2018-12-30T05:03:22.768Z,10.87
2018-12-30T05:09:26.217Z,10.37
2018-12-30T05:15:29.624Z,10.43
2018-12-30T05:21:33.776Z,8.60
2018-12-30T05:27:37.432Z,10.30
2018-12-30T05:33:40.768Z,8.47
2018-12-30T05:39:44.071Z,6.70
2018-12-30T05:45:47.407Z,8.73
2018-12-30T05:51:50.744Z,7.83
2018-12-30T05:57:54.073Z,7.40
2018-12-30T06:03:57.483Z,7.27
2018-12-30T06:10:00.920Z,6.63
2018-12-30T06:16:04.319Z,6.17
2018-12-30T06:22:08.408Z,7.33
2018-12-30T06:28:11.789Z,6.43
2018-12-30T06:34:15.338Z,5.90
2018-12-30T06:40:18.712Z,5.27
2018-12-30T06:46:22.044Z,6.07
2018-12-30T06:52:25.371Z,6.77
2018-12-30T06:58:28.903Z,6.10
2018-12-30T07:04:32.232Z,5.37
2018-12-30T07:10:35.727Z,4.50
2018-12-30T07:16:39.104Z,4.80
2018-12-30T07:22:43.264Z,4.50
2018-12-30T07:28:46.660Z,4.60
2018-12-30T07:34:49.988Z,4.33
2018-12-30T07:40:53.301Z,7.80
2018-12-30T07:46:56.685Z,6.43
2018-12-30T07:53:00.291Z,6.00
2018-12-30T07:59:03.627Z,6.27
2018-12-30T08:05:06.963Z,9.10
2018-12-30T08:11:10.329Z,8.30
2018-12-30T08:17:13.716Z,6.03
2018-12-30T08:23:21.383Z,10.13
2018-12-30T08:29:22.857Z,8.80
2018-12-30T08:35:26.188Z,7.27
2018-12-30T08:41:29.492Z,5.30
2018-12-30T08:47:32.825Z,4.73
2018-12-30T08:53:36.148Z,4.17
2018-12-30T08:59:39.724Z,4.80
2018-12-30T09:05:43.048Z,5.07
2018-12-30T09:11:46.480Z,5.67
2018-12-30T09:17:49.860Z,5.23
2018-12-30T09:23:53.949Z,5.73
2018-12-30T09:29:57.280Z,5.70
2018-12-30T09:36:00.614Z,5.83
2018-12-30T09:42:03.992Z,5.20
2018-12-30T09:48:07.333Z,5.23
2018-12-30T09:54:10.731Z,67.00
2018-12-30T10:00:14.069Z,43.93
2018-12-30T10:06:17.409Z,27.83
2018-12-30T10:12:20.776Z,12.50
2018-12-30T10:18:24.160Z,9.83
2018-12-30T10:24:28.503Z,7.50
2018-12-30T10:30:31.876Z,13.70
2018-12-30T10:36:35.216Z,19.53
2018-12-30T10:42:38.536Z,45.63
2018-12-30T10:48:42.001Z,50.90
2018-12-30T10:54:45.336Z,18.20
2018-12-30T11:00:48.677Z,8.33
2018-12-30T11:06:52.077Z,7.00
2018-12-30T11:12:55.459Z,7.80
2018-12-30T11:18:58.857Z,6.37
2018-12-30T11:25:03.066Z,8.00
2018-12-30T11:31:06.468Z,17.40
2018-12-30T11:37:10.038Z,91.00
2018-12-30T11:43:13.657Z,67.77
2018-12-30T11:49:17.039Z,23.47
2018-12-30T11:55:20.376Z,24.73
2018-12-30T12:01:23.709Z,31.00
2018-12-30T12:07:27.132Z,16.30
2018-12-30T12:13:30.585Z,20.40
2018-12-30T12:19:33.925Z,93.73
2018-12-30T12:25:38.402Z,33.00
2018-12-30T12:31:41.804Z,43.73
2018-12-30T12:37:45.144Z,20.93
2018-12-30T12:43:48.472Z,27.53
2018-12-30T12:49:51.808Z,20.00
2018-12-30T12:55:55.340Z,12.97
2018-12-30T13:01:58.682Z,10.53
2018-12-30T13:08:02.017Z,15.77
2018-12-30T13:14:05.747Z,8.97
2018-12-30T13:20:09.198Z,8.93
2018-12-30T13:26:13.473Z,13.27
2018-12-30T13:32:16.810Z,9.20
2018-12-30T13:38:27.978Z,12.07
2018-12-30T13:44:25.336Z,11.57
2018-12-30T13:50:28.668Z,9.60
2018-12-30T13:56:31.993Z,9.80
2018-12-30T14:02:35.405Z,10.27
2018-12-30T14:08:38.736Z,10.57
2018-12-30T14:14:42.120Z,43.13
2018-12-30T14:20:47.184Z,133.60
2018-12-30T14:26:50.604Z,159.37
2018-12-30T14:32:54.008Z,53.37
2018-12-30T14:38:57.533Z,114.70
2018-12-30T14:45:00.845Z,62.53
2018-12-30T14:51:04.188Z,71.17
2018-12-30T14:57:07.580Z,63.40
2018-12-30T15:03:10.912Z,79.57
2018-12-30T15:09:14.244Z,29.30
2018-12-30T15:15:17.872Z,66.20
2018-12-30T15:21:21.180Z,31.10
2018-12-30T15:27:25.303Z,29.10
2018-12-30T15:33:28.637Z,23.77
2018-12-30T15:39:32.056Z,21.93
2018-12-30T15:45:35.360Z,17.27
2018-12-30T15:51:38.692Z,14.07
2018-12-30T15:57:42.104Z,13.13
2018-12-30T16:03:45.647Z,13.97
2018-12-30T16:09:49.061Z,18.00
2018-12-30T16:15:52.433Z,15.83
2018-12-30T16:21:56.535Z,15.47
2018-12-30T16:28:00.703Z,53.37
2018-12-30T16:34:04.384Z,40.27
2018-12-30T16:40:07.717Z,118.77
2018-12-30T16:46:11.115Z,90.13
2018-12-30T16:52:14.513Z,44.50
2018-12-30T16:58:17.924Z,105.43
2018-12-30T17:04:21.259Z,27.53
2018-12-30T17:10:24.587Z,14.63
2018-12-30T17:16:28.028Z,6.90
2018-12-30T17:22:31.320Z,7.27
2018-12-30T17:28:35.485Z,7.23
2018-12-30T17:34:38.821Z,8.13
2018-12-30T17:40:42.232Z,8.27
2018-12-30T17:46:45.536Z,9.20
2018-12-30T17:52:48.925Z,10.10
2018-12-30T17:58:52.269Z,10.90
2018-12-30T18:04:55.655Z,10.13
2018-12-30T18:10:58.990Z,9.67
2018-12-30T18:17:02.432Z,9.50
2018-12-30T18:23:05.740Z,12.60
2018-12-30T18:29:09.904Z,12.53
2018-12-30T18:35:13.316Z,14.03
2018-12-30T18:41:16.648Z,13.37
2018-12-30T18:47:20.045Z,11.47
2018-12-30T18:53:23.421Z,9.50
2018-12-30T18:59:26.786Z,14.27
2018-12-30T19:05:30.456Z,29.07
2018-12-30T19:11:33.876Z,82.23
2018-12-30T19:17:37.279Z,35.40
2018-12-30T19:23:40.724Z,15.47
2018-12-30T19:29:44.871Z,28.93
2018-12-30T19:35:48.286Z,47.93
2018-12-30T19:41:51.617Z,25.47
2018-12-30T19:47:55.008Z,11.53
2018-12-30T19:53:58.340Z,17.43
2018-12-30T20:00:01.668Z,23.23
2018-12-30T20:06:05.077Z,14.77
2018-12-30T20:12:08.403Z,11.53
2018-12-30T20:18:11.852Z,47.80
2018-12-30T20:24:15.244Z,26.47
2018-12-30T20:30:19.489Z,19.53
2018-12-30T20:36:23.064Z,13.27
2018-12-30T20:42:26.464Z,14.87
2018-12-30T20:48:29.824Z,12.90
2018-12-30T20:54:33.156Z,13.77
2018-12-30T21:00:36.753Z,17.77
2018-12-30T21:06:40.209Z,27.63
2018-12-30T21:12:43.620Z,42.97
2018-12-30T21:18:47.057Z,35.13
2018-12-30T21:24:50.387Z,33.37
2018-12-30T21:30:54.696Z,22.53
2018-12-30T21:36:58.036Z,14.40
2018-12-30T21:43:01.376Z,14.53
2018-12-30T21:49:04.712Z,13.97
2018-12-30T21:55:08.048Z,14.20
2018-12-30T22:01:11.383Z,14.43
2018-12-30T22:07:14.712Z,12.40
2018-12-30T22:13:18.050Z,13.17
2018-12-30T22:19:21.500Z,13.70
2018-12-30T22:25:24.881Z,13.20
2018-12-30T22:31:28.976Z,15.43
2018-12-30T22:37:32.313Z,15.00
2018-12-30T22:43:35.724Z,15.03
2018-12-30T22:49:39.028Z,17.40
2018-12-30T22:55:42.368Z,15.73
2018-12-30T23:01:46.008Z,14.70
2018-12-30T23:07:49.427Z,13.93
2018-12-30T23:13:52.769Z,13.27
2018-12-30T23:19:56.207Z,13.63
2018-12-30T23:25:59.612Z,9.23
2018-12-30T23:32:03.768Z,7.37
2018-12-30T23:38:07.101Z,4.47
2018-12-30T23:44:10.432Z,4.07
2018-12-30T23:50:13.736Z,4.13
2018-12-30T23:56:17.073Z,2.93
